Time;durP1;ratioP1;P1;durP2;ratioP2;P2;SDS_P1;SDS_P2;PMS_P1;PMS_P2;Temp;Humidity;BMP_temperature;BMP_pressure;BME280_temperature;BME280_humidity;BME280_pressure;Samples;Min_cycle;Max_cycle;Signal;HPM_P1;HPM_P2
2021/12/21 00:01:21;;;;;;;30.57;27.47;;;-1.20;99.90;;;;;;5038879;28;20467;-71
2021/12/21 00:03:48;;;;;;;26.17;23.80;;;-1.20;99.90;;;;;;5039098;28;20467;-75
2021/12/21 00:06:15;;;;;;;29.43;25.63;;;-1.20;99.90;;;;;;5035173;28;20555;-74
2021/12/21 00:08:41;;;;;;;32.53;24.27;;;-1.20;99.90;;;;;;5041155;28;20466;-73
2021/12/21 00:11:10;;;;;;;26.07;23.00;;;-1.30;99.90;;;;;;5041057;28;20506;-72
2021/12/21 00:13:51;;;;;;;25.40;23.13;;;-1.40;99.90;;;;;;5036818;28;20470;-75
2021/12/21 00:16:40;;;;;;;27.57;24.70;;;-1.50;99.90;;;;;;5038912;28;20553;-72
2021/12/21 00:19:20;;;;;;;29.67;23.13;;;-1.60;99.90;;;;;;5038561;28;20919;-72
2021/12/21 00:21:54;;;;;;;28.17;25.37;;;-1.60;99.90;;;;;;5043911;28;20477;-75
2021/12/21 00:24:23;;;;;;;22.27;20.53;;;-1.50;99.90;;;;;;5040684;28;20556;-73
2021/12/21 00:26:51;;;;;;;23.07;21.17;;;-1.50;99.90;;;;;;5039968;28;20464;-74
2021/12/21 00:29:20;;;;;;;23.60;21.50;;;-1.50;99.90;;;;;;5044449;28;20495;-74
2021/12/21 00:31:47;;;;;;;23.07;20.77;;;-1.60;99.90;;;;;;5046782;28;20478;-75
2021/12/21 00:34:14;;;;;;;23.23;20.50;;;-1.60;99.90;;;;;;5042904;28;20467;-73
2021/12/21 00:36:41;;;;;;;24.67;22.30;;;-1.70;99.90;;;;;;5044891;28;20515;-73
2021/12/21 00:39:11;;;;;;;23.10;21.00;;;-1.80;99.90;;;;;;5040896;28;20471;-71
2021/12/21 00:41:38;;;;;;;24.23;21.93;;;-1.90;99.90;;;;;;5038260;28;20937;-75
2021/12/21 00:44:06;;;;;;;25.77;23.40;;;-2.00;99.90;;;;;;5035495;28;20468;-76
2021/12/21 00:46:33;;;;;;;23.00;21.20;;;-2.00;99.90;;;;;;5046897;28;20487;-74
2021/12/21 00:49:12;;;;;;;23.60;21.17;;;-2.00;99.90;;;;;;5042456;28;20469;-72
2021/12/21 00:51:39;;;;;;;30.13;24.47;;;-2.00;99.90;;;;;;5041348;28;20455;-73
2021/12/21 00:54:06;;;;;;;24.37;21.77;;;-1.90;99.90;;;;;;5041039;28;20477;-74
2021/12/21 00:56:33;;;;;;;26.80;23.60;;;-1.90;99.90;;;;;;5040013;28;20962;-72
2021/12/21 00:59:00;;;;;;;25.73;23.07;;;-1.90;99.90;;;;;;5044669;28;20468;-75
2021/12/21 01:01:28;;;;;;;31.17;26.20;;;-2.00;99.90;;;;;;5043216;28;20465;-73
2021/12/21 01:03:57;;;;;;;25.90;22.30;;;-2.10;99.90;;;;;;5046555;28;20468;-72
2021/12/21 01:06:36;;;;;;;24.63;22.10;;;-2.20;99.90;;;;;;5038829;28;21031;-75
2021/12/21 01:09:11;;;;;;;24.73;22.13;;;-2.30;99.90;;;;;;5041186;28;20459;-73
2021/12/21 01:11:42;;;;;;;22.83;20.63;;;-2.30;99.90;;;;;;5039334;28;20987;-74
2021/12/21 01:14:35;;;;;;;22.57;20.30;;;-2.40;99.90;;;;;;5044361;28;20463;-73
2021/12/21 01:17:08;;;;;;;24.20;21.37;;;-2.50;99.90;;;;;;5041020;28;20449;-75
2021/12/21 01:19:39;;;;;;;25.13;22.70;;;-2.50;99.90;;;;;;5038043;28;20467;-74
2021/12/21 01:22:14;;;;;;;22.77;20.90;;;-2.60;99.90;;;;;;5047081;28;20457;-75
2021/12/21 01:24:56;;;;;;;24.60;22.20;;;-2.70;99.90;;;;;;5040885;28;20855;-73
2021/12/21 01:27:33;;;;;;;22.27;20.30;;;-2.70;99.90;;;;;;5040866;28;20467;-71
2021/12/21 01:30:08;;;;;;;22.50;20.63;;;-2.70;99.90;;;;;;5039256;28;20818;-73
2021/12/21 01:35:26;;;;;;;20.27;18.77;;;-2.80;99.90;;;;;;5041598;28;20454;-75
2021/12/21 01:37:58;;;;;;;21.90;19.93;;;-2.80;99.90;;;;;;5044859;28;20467;-74
2021/12/21 01:40:35;;;;;;;23.77;21.63;;;-2.90;99.90;;;;;;5044093;28;20462;-73
2021/12/21 01:43:16;;;;;;;21.70;20.00;;;-2.90;99.90;;;;;;5039296;28;20470;-71
2021/12/21 01:51:14;;;;;;;23.00;20.70;;;-2.90;99.90;;;;;;5039746;28;20853;-74
2021/12/21 01:53:43;;;;;;;23.97;21.57;;;-2.90;99.90;;;;;;5038031;28;20835;-71
2021/12/21 01:56:10;;;;;;;21.77;20.00;;;-3.00;99.90;;;;;;5042185;28;20468;-73
2021/12/21 01:58:39;;;;;;;23.37;21.20;;;-3.10;99.90;;;;;;5045194;28;20458;-73
2021/12/21 02:01:07;;;;;;;24.20;21.73;;;-3.10;99.90;;;;;;5045207;28;20470;-72
2021/12/21 02:03:36;;;;;;;23.70;21.50;;;-3.10;99.90;;;;;;5039732;28;20458;-74
2021/12/21 02:06:02;;;;;;;23.07;21.07;;;-3.20;99.90;;;;;;5043510;28;20464;-72
2021/12/21 02:08:29;;;;;;;24.83;22.53;;;-3.20;99.90;;;;;;5041143;28;20475;-72
2021/12/21 02:10:59;;;;;;;28.10;21.73;;;-3.20;99.90;;;;;;5041829;28;20483;-75
2021/12/21 02:13:30;;;;;;;22.37;20.20;;;-3.20;99.90;;;;;;5043063;28;20473;-70
2021/12/21 02:15:57;;;;;;;23.60;21.50;;;-3.20;99.90;;;;;;5041538;28;20499;-73
2021/12/21 02:18:39;;;;;;;22.70;20.60;;;-3.20;99.90;;;;;;5040706;28;20988;-69
2021/12/21 02:21:19;;;;;;;24.37;22.23;;;-3.20;99.90;;;;;;5044372;28;20465;-73
2021/12/21 02:23:48;;;;;;;24.87;22.40;;;-3.20;99.90;;;;;;5040232;28;20460;-70
2021/12/21 02:26:39;;;;;;;23.33;21.03;;;-3.20;99.90;;;;;;5042106;28;20565;-69
2021/12/21 02:29:17;;;;;;;31.10;21.67;;;-3.10;99.90;;;;;;5041440;28;20825;-70
2021/12/21 02:31:47;;;;;;;21.33;19.53;;;-3.10;99.90;;;;;;5039557;28;20495;-72
2021/12/21 02:34:16;;;;;;;21.50;19.80;;;-3.00;99.90;;;;;;5040245;28;20544;-72
2021/12/21 02:36:47;;;;;;;24.17;22.17;;;-3.00;99.90;;;;;;5044009;28;20464;-74
2021/12/21 02:39:15;;;;;;;22.03;19.93;;;-3.00;99.90;;;;;;5037637;28;20471;-71
2021/12/21 02:41:43;;;;;;;27.80;23.47;;;-3.00;99.90;;;;;;5036253;28;20470;-73
2021/12/21 02:44:10;;;;;;;22.33;20.43;;;-3.00;99.90;;;;;;5046377;28;20545;-72
2021/12/21 02:46:39;;;;;;;25.00;20.23;;;-3.00;99.90;;;;;;5041518;28;20498;-72
2021/12/21 02:49:06;;;;;;;24.93;20.87;;;-3.00;99.90;;;;;;5039298;28;20503;-70
2021/12/21 02:51:34;;;;;;;24.07;21.73;;;-3.00;99.90;;;;;;5035418;28;20494;-72
2021/12/21 02:54:02;;;;;;;23.10;21.10;;;-3.00;99.90;;;;;;5044479;28;20468;-71
2021/12/21 02:56:30;;;;;;;23.30;21.27;;;-3.00;99.90;;;;;;5039238;28;20471;-72
2021/12/21 02:58:57;;;;;;;22.77;20.97;;;-3.00;99.90;;;;;;5041470;28;20472;-69
2021/12/21 03:01:24;;;;;;;22.97;20.87;;;-3.00;99.90;;;;;;5038089;28;21031;-70
2021/12/21 03:03:52;;;;;;;23.33;21.27;;;-3.10;99.90;;;;;;5041997;28;20466;-69
2021/12/21 03:06:48;;;;;;;23.43;21.50;;;-3.10;99.90;;;;;;5039949;28;20460;-70
2021/12/21 03:09:33;;;;;;;22.30;20.20;;;-3.10;99.90;;;;;;5035863;28;20471;-70
2021/12/21 03:12:11;;;;;;;21.60;19.83;;;-3.10;99.90;;;;;;5040877;28;20495;-73
2021/12/21 03:14:39;;;;;;;23.53;21.27;;;-3.10;99.90;;;;;;5036679;28;21449;-70
2021/12/21 03:17:08;;;;;;;24.83;22.43;;;-3.20;99.90;;;;;;5043214;28;20470;-70
2021/12/21 03:19:34;;;;;;;23.27;21.00;;;-3.30;99.90;;;;;;5037076;28;20523;-72
2021/12/21 03:22:02;;;;;;;23.40;21.33;;;-3.40;99.90;;;;;;5039114;28;20552;-73
2021/12/21 03:24:30;;;;;;;23.10;20.93;;;-3.50;99.90;;;;;;5042928;28;20976;-69
2021/12/21 03:26:57;;;;;;;22.80;21.00;;;-3.50;99.90;;;;;;5035168;28;20461;-70
2021/12/21 03:29:24;;;;;;;22.53;20.63;;;-3.50;99.90;;;;;;5036994;28;20482;-71
2021/12/21 03:31:51;;;;;;;23.97;21.80;;;-3.50;99.90;;;;;;5046115;28;20495;-72
2021/12/21 03:34:19;;;;;;;25.07;22.30;;;-3.60;99.90;;;;;;5039216;28;20794;-70
2021/12/21 03:36:46;;;;;;;24.67;22.43;;;-3.60;99.90;;;;;;5039324;28;20466;-72
2021/12/21 03:39:17;;;;;;;22.73;20.50;;;-3.70;99.90;;;;;;5042138;28;20472;-71
2021/12/21 03:41:48;;;;;;;22.43;20.50;;;-3.70;99.90;;;;;;5034032;28;20510;-71
2021/12/21 03:44:16;;;;;;;27.73;22.30;;;-3.70;99.90;;;;;;5043509;28;20466;-70
2021/12/21 03:46:47;;;;;;;23.77;21.23;;;-3.80;99.90;;;;;;5044713;28;20475;-71
2021/12/21 03:49:50;;;;;;;24.23;22.13;;;-3.80;99.90;;;;;;5039486;28;20554;-73
2021/12/21 03:52:12;;;;;;;24.10;21.93;;;-3.80;99.90;;;;;;5037067;28;20538;-71
2021/12/21 03:54:42;;;;;;;24.27;22.03;;;-3.80;99.90;;;;;;5039082;28;20462;-71
2021/12/21 03:57:11;;;;;;;23.63;21.47;;;-3.80;99.90;;;;;;5039797;28;20467;-72
2021/12/21 03:59:40;;;;;;;23.13;21.23;;;-3.80;99.90;;;;;;5042267;28;20564;-72
2021/12/21 04:02:08;;;;;;;23.97;21.90;;;-3.80;99.90;;;;;;5045434;28;20500;-70
2021/12/21 04:04:35;;;;;;;22.67;20.57;;;-3.80;99.90;;;;;;5043732;28;20536;-70
2021/12/21 04:07:02;;;;;;;22.30;20.10;;;-3.80;99.90;;;;;;5038757;28;20987;-68
2021/12/21 04:09:29;;;;;;;24.23;22.23;;;-3.70;99.90;;;;;;5041119;28;20492;-70
2021/12/21 04:11:55;;;;;;;22.80;20.80;;;-3.70;99.90;;;;;;5038339;28;20480;-73
2021/12/21 04:14:24;;;;;;;26.00;22.40;;;-3.70;99.90;;;;;;5039834;28;20473;-71
2021/12/21 04:16:52;;;;;;;28.17;21.93;;;-3.70;99.90;;;;;;5042408;28;20976;-70
2021/12/21 04:19:19;;;;;;;22.53;20.33;;;-3.60;99.90;;;;;;5038162;28;20909;-73
2021/12/21 04:21:46;;;;;;;22.77;20.80;;;-3.50;99.90;;;;;;5041416;28;20471;-71
2021/12/21 04:24:13;;;;;;;23.23;21.20;;;-3.50;99.90;;;;;;5039020;28;20470;-74
2021/12/21 04:26:40;;;;;;;22.50;20.77;;;-3.50;99.90;;;;;;5034142;28;20464;-73
2021/12/21 04:29:07;;;;;;;25.10;22.50;;;-3.50;99.90;;;;;;5040408;28;20467;-69
2021/12/21 04:31:35;;;;;;;25.13;22.60;;;-3.60;99.90;;;;;;5040529;28;20504;-71
2021/12/21 04:34:02;;;;;;;23.30;21.20;;;-3.70;99.90;;;;;;5038817;28;20460;-72
2021/12/21 04:36:30;;;;;;;24.30;21.70;;;-3.70;99.90;;;;;;5036566;28;20962;-70
2021/12/21 04:39:00;;;;;;;22.23;20.50;;;-3.70;99.90;;;;;;5038287;28;20540;-69
2021/12/21 04:41:28;;;;;;;22.37;20.57;;;-3.60;99.90;;;;;;5040809;28;20984;-73
2021/12/21 04:43:57;;;;;;;22.80;21.00;;;-3.60;99.90;;;;;;5036522;28;20465;-71
2021/12/21 04:46:25;;;;;;;22.60;20.87;;;-3.70;99.90;;;;;;5045225;28;20479;-69
2021/12/21 04:48:54;;;;;;;23.67;21.30;;;-3.80;99.90;;;;;;5040974;28;20483;-69
2021/12/21 04:51:22;;;;;;;26.73;22.17;;;-3.70;99.90;;;;;;5038412;28;20484;-72
2021/12/21 04:53:49;;;;;;;26.77;22.30;;;-3.80;99.90;;;;;;5040046;28;20482;-71
2021/12/21 04:56:15;;;;;;;23.97;22.07;;;-3.80;99.90;;;;;;5041015;28;20472;-73
2021/12/21 04:58:42;;;;;;;26.90;20.60;;;-3.90;99.90;;;;;;5038624;28;20457;-71
2021/12/21 05:01:09;;;;;;;22.70;20.93;;;-4.00;99.90;;;;;;5038490;28;20464;-73
2021/12/21 05:03:36;;;;;;;23.30;20.80;;;-3.90;99.90;;;;;;5041081;28;20463;-72
2021/12/21 05:06:04;;;;;;;23.27;20.90;;;-4.00;99.90;;;;;;5037443;28;21085;-74
2021/12/21 05:08:36;;;;;;;24.83;22.13;;;-4.00;99.90;;;;;;5039690;28;20475;-72
2021/12/21 05:11:05;;;;;;;23.10;20.80;;;-4.10;99.90;;;;;;5040782;28;20557;-70
2021/12/21 05:13:34;;;;;;;25.10;21.80;;;-4.10;99.90;;;;;;5040760;28;20962;-70
2021/12/21 05:16:01;;;;;;;24.90;20.93;;;-4.10;99.90;;;;;;5036229;28;20674;-71
2021/12/21 05:18:29;;;;;;;22.97;21.00;;;-4.20;99.90;;;;;;5041747;28;20464;-71
2021/12/21 05:20:56;;;;;;;24.73;22.07;;;-4.20;99.90;;;;;;5038939;28;20467;-69
2021/12/21 05:23:24;;;;;;;24.93;22.60;;;-4.30;99.90;;;;;;5037742;28;20467;-71
2021/12/21 05:25:51;;;;;;;23.67;21.60;;;-4.30;99.90;;;;;;5043521;28;20486;-70
2021/12/21 05:28:18;;;;;;;24.60;21.30;;;-4.30;99.90;;;;;;5045742;28;20460;-74
2021/12/21 05:30:46;;;;;;;26.73;20.97;;;-4.40;99.90;;;;;;5043020;28;20995;-70
2021/12/21 05:33:14;;;;;;;23.97;21.87;;;-4.50;99.90;;;;;;5040579;28;20495;-72
2021/12/21 05:35:41;;;;;;;23.63;21.60;;;-4.50;99.90;;;;;;5040129;28;20552;-70
2021/12/21 05:38:10;;;;;;;23.57;21.27;;;-4.50;99.90;;;;;;5045216;28;20506;-70
2021/12/21 05:40:40;;;;;;;23.23;21.13;;;-4.50;99.90;;;;;;5037540;28;20471;-72
2021/12/21 05:43:10;;;;;;;23.87;21.47;;;-4.40;99.90;;;;;;5042815;28;20469;-74
2021/12/21 05:45:37;;;;;;;23.20;21.30;;;-4.40;99.90;;;;;;5036998;28;20460;-70
2021/12/21 05:48:05;;;;;;;23.27;21.43;;;-4.50;99.90;;;;;;5042828;28;20484;-71
2021/12/21 05:50:32;;;;;;;22.50;20.67;;;-4.40;99.90;;;;;;5036731;28;20463;-73
2021/12/21 05:52:59;;;;;;;23.90;21.30;;;-4.40;99.90;;;;;;5043935;28;20994;-70
2021/12/21 05:55:26;;;;;;;24.27;22.00;;;-4.40;99.90;;;;;;5045673;28;20487;-70
2021/12/21 05:57:54;;;;;;;23.63;21.47;;;-4.40;99.90;;;;;;5046423;28;20946;-71
2021/12/21 06:00:26;;;;;;;24.63;22.43;;;-4.40;99.90;;;;;;5040535;28;20503;-72
2021/12/21 06:02:53;;;;;;;24.43;21.97;;;-4.50;99.90;;;;;;5041477;28;20470;-70
2021/12/21 06:05:21;;;;;;;23.80;21.67;;;-4.40;99.90;;;;;;5043585;28;21139;-73
2021/12/21 06:07:50;;;;;;;23.57;21.47;;;-4.40;99.90;;;;;;5034822;28;20479;-71
2021/12/21 06:10:23;;;;;;;22.83;20.93;;;-4.40;99.90;;;;;;5046293;28;20470;-71
2021/12/21 06:13:21;;;;;;;24.63;22.10;;;-4.40;99.90;;;;;;5040839;28;20514;-69
2021/12/21 06:16:07;;;;;;;24.20;21.77;;;-4.50;99.90;;;;;;5045715;28;20460;-69
2021/12/21 06:27:07;;;;;;;33.57;21.50;;;-4.50;99.90;;;;;;5023587;28;20452;-73
2021/12/21 06:29:34;;;;;;;24.50;22.40;;;-4.40;99.90;;;;;;5042883;28;20929;-72
2021/12/21 06:32:03;;;;;;;24.40;22.13;;;-4.40;99.90;;;;;;5040651;28;20475;-69
2021/12/21 06:34:30;;;;;;;26.30;22.93;;;-4.40;99.90;;;;;;5040028;28;20555;-69
2021/12/21 06:36:58;;;;;;;27.83;22.80;;;-4.50;99.90;;;;;;5041244;28;20468;-69
2021/12/21 06:39:26;;;;;;;24.47;22.33;;;-4.40;99.90;;;;;;5043317;28;20510;-70
2021/12/21 06:41:53;;;;;;;26.80;21.07;;;-4.40;99.90;;;;;;5038246;28;20464;-70
2021/12/21 06:44:20;;;;;;;23.83;21.83;;;-4.40;99.90;;;;;;5044058;28;20471;-73
2021/12/21 06:47:05;;;;;;;24.37;21.50;;;-4.40;99.90;;;;;;5039056;28;20534;-69
2021/12/21 06:52:19;;;;;;;23.37;21.43;;;-4.30;99.90;;;;;;5039215;28;20545;-69
2021/12/21 06:54:46;;;;;;;24.83;22.63;;;-4.20;99.90;;;;;;5045096;28;20472;-71
2021/12/21 06:57:12;;;;;;;26.20;23.20;;;-4.10;99.90;;;;;;5038805;28;20475;-69
2021/12/21 06:59:40;;;;;;;24.10;22.03;;;-4.00;99.90;;;;;;5036882;28;20465;-72
2021/12/21 07:02:08;;;;;;;23.70;21.23;;;-4.00;99.90;;;;;;5043147;28;20464;-73
2021/12/21 07:04:37;;;;;;;23.53;21.63;;;-3.80;99.90;;;;;;5044248;28;20966;-73
2021/12/21 07:07:04;;;;;;;23.40;21.37;;;-3.80;99.90;;;;;;5035820;28;21135;-71
2021/12/21 07:09:36;;;;;;;26.37;23.90;;;-3.60;99.90;;;;;;5037065;28;20459;-69
2021/12/21 07:12:26;;;;;;;23.53;21.50;;;-3.60;99.90;;;;;;5033963;28;20496;-70
2021/12/21 07:20:24;;;;;;;25.27;21.40;;;-3.50;99.90;;;;;;5041750;28;20521;-70
2021/12/21 07:22:51;;;;;;;26.07;22.60;;;-3.40;99.90;;;;;;5041288;28;20466;-69
2021/12/21 07:25:17;;;;;;;22.10;20.40;;;-3.40;99.90;;;;;;5041012;28;20462;-68
2021/12/21 07:27:45;;;;;;;24.23;22.07;;;-3.30;99.90;;;;;;5040630;28;20936;-71
2021/12/21 07:30:12;;;;;;;25.13;22.67;;;-3.40;99.90;;;;;;5042507;28;20830;-71
2021/12/21 07:32:39;;;;;;;28.77;23.10;;;-3.40;99.90;;;;;;5041123;28;20496;-69
2021/12/21 07:35:07;;;;;;;24.77;22.43;;;-3.40;99.90;;;;;;5040172;28;20474;-72
2021/12/21 07:37:36;;;;;;;24.53;22.07;;;-3.40;99.90;;;;;;5042066;28;20467;-72
2021/12/21 07:40:04;;;;;;;26.57;23.77;;;-3.40;99.90;;;;;;5035475;28;20572;-71
2021/12/21 07:42:31;;;;;;;24.53;22.10;;;-3.50;99.90;;;;;;5039497;28;20947;-70
2021/12/21 07:44:59;;;;;;;24.63;22.43;;;-3.30;99.90;;;;;;5038870;28;20543;-69
2021/12/21 07:47:26;;;;;;;24.80;22.40;;;-3.30;99.90;;;;;;5036546;28;20955;-70
2021/12/21 07:49:53;;;;;;;24.83;22.47;;;-3.30;99.90;;;;;;5037401;28;20468;-72
2021/12/21 07:52:20;;;;;;;27.80;22.93;;;-3.40;99.90;;;;;;5031668;28;20499;-72
2021/12/21 07:54:49;;;;;;;25.60;22.23;;;-3.50;99.90;;;;;;5037169;28;20465;-72
2021/12/21 07:57:16;;;;;;;26.13;21.63;;;-3.50;99.90;;;;;;5043246;28;20474;-71
2021/12/21 07:59:43;;;;;;;29.53;21.93;;;-3.50;99.90;;;;;;5039173;28;20874;-69
2021/12/21 08:02:11;;;;;;;25.33;22.87;;;-3.60;99.90;;;;;;5037402;28;20471;-71
2021/12/21 08:04:39;;;;;;;25.80;23.50;;;-3.60;99.90;;;;;;5040781;28;20533;-69
2021/12/21 08:07:11;;;;;;;25.83;23.33;;;-3.60;99.90;;;;;;5042061;28;20466;-73
2021/12/21 08:09:41;;;;;;;26.47;22.17;;;-3.60;99.90;;;;;;5039542;28;20538;-70
2021/12/21 08:12:15;;;;;;;25.17;22.93;;;-3.60;99.90;;;;;;5041623;28;21241;-72
2021/12/21 08:14:43;;;;;;;26.27;23.87;;;-3.60;99.90;;;;;;5039928;28;20576;-72
2021/12/21 08:17:10;;;;;;;24.30;22.30;;;-3.50;99.90;;;;;;5037717;28;20463;-72
2021/12/21 08:19:36;;;;;;;25.10;22.60;;;-3.40;99.90;;;;;;5036942;28;20549;-71
2021/12/21 08:22:04;;;;;;;24.53;22.13;;;-3.40;99.90;;;;;;5034607;28;20966;-73
2021/12/21 08:24:33;;;;;;;23.43;21.43;;;-3.20;99.90;;;;;;5031317;28;20825;-74
2021/12/21 08:27:02;;;;;;;24.60;22.30;;;-2.90;99.90;;;;;;5039949;28;20950;-72
2021/12/21 08:29:31;;;;;;;25.43;22.83;;;-2.90;99.90;;;;;;5038694;28;20463;-71
2021/12/21 08:31:58;;;;;;;23.63;21.47;;;-2.80;99.90;;;;;;5036863;28;20494;-71
2021/12/21 08:34:25;;;;;;;25.30;22.70;;;-2.70;99.90;;;;;;5036386;28;20462;-70
2021/12/21 08:36:53;;;;;;;25.10;22.57;;;-2.50;99.90;;;;;;5041439;28;21149;-73
2021/12/21 08:39:23;;;;;;;24.13;21.80;;;-2.50;99.90;;;;;;5040161;28;20475;-71
2021/12/21 08:41:56;;;;;;;23.27;21.40;;;-2.50;99.90;;;;;;5038952;28;20474;-70
2021/12/21 08:44:24;;;;;;;30.23;24.33;;;-2.30;99.90;;;;;;5037237;28;20986;-72
2021/12/21 08:46:53;;;;;;;23.67;21.50;;;-2.40;99.90;;;;;;5041969;28;20540;-71
2021/12/21 08:49:20;;;;;;;23.63;21.37;;;-2.40;99.90;;;;;;5034759;28;20971;-72
2021/12/21 08:51:46;;;;;;;24.60;22.00;;;-2.40;99.90;;;;;;5038805;28;20458;-69
2021/12/21 08:54:13;;;;;;;22.43;20.10;;;-2.40;99.90;;;;;;5042082;28;20473;-70
2021/12/21 08:56:40;;;;;;;23.80;21.70;;;-2.30;99.90;;;;;;5040478;28;20473;-72
2021/12/21 08:59:08;;;;;;;23.33;21.13;;;-2.20;99.90;;;;;;5041495;28;20517;-71
2021/12/21 09:01:35;;;;;;;22.97;20.90;;;-2.10;99.90;;;;;;5041412;28;20472;-73
2021/12/21 09:04:04;;;;;;;23.10;21.30;;;-2.10;99.90;;;;;;5043796;28;20472;-70
2021/12/21 09:06:31;;;;;;;23.17;21.13;;;-2.00;99.90;;;;;;5032604;28;20463;-73
2021/12/21 09:08:57;;;;;;;26.87;21.57;;;-2.00;99.90;;;;;;5041513;28;20515;-73
2021/12/21 09:11:24;;;;;;;23.23;21.10;;;-1.90;99.90;;;;;;5045300;28;20466;-70
2021/12/21 09:13:51;;;;;;;24.23;22.13;;;-1.90;99.90;;;;;;5041395;28;20839;-70
2021/12/21 09:16:18;;;;;;;23.53;21.63;;;-1.80;99.90;;;;;;5035365;28;20465;-71
2021/12/21 09:18:46;;;;;;;25.20;22.60;;;-1.80;99.90;;;;;;5040217;28;20828;-70
2021/12/21 09:21:14;;;;;;;28.90;22.83;;;-1.70;99.90;;;;;;5041132;28;21000;-73
2021/12/21 09:23:42;;;;;;;24.30;21.50;;;-1.70;99.90;;;;;;5039223;28;20455;-71
2021/12/21 09:26:09;;;;;;;22.73;20.80;;;-1.60;99.90;;;;;;5043954;28;20953;-73
2021/12/21 09:28:36;;;;;;;23.93;21.50;;;-1.50;99.90;;;;;;5039327;28;20550;-71
2021/12/21 09:31:03;;;;;;;24.23;21.83;;;-1.40;99.90;;;;;;5044053;28;20507;-71
2021/12/21 09:33:30;;;;;;;23.67;21.87;;;-1.40;99.90;;;;;;5040162;28;20495;-72
2021/12/21 09:35:57;;;;;;;24.03;21.80;;;-1.30;99.90;;;;;;5044547;28;20469;-73
2021/12/21 09:38:26;;;;;;;24.30;22.10;;;-1.20;99.90;;;;;;5046713;28;20965;-69
2021/12/21 09:40:54;;;;;;;27.80;22.80;;;-1.20;99.90;;;;;;5037850;28;20962;-71
2021/12/21 09:43:22;;;;;;;23.93;21.67;;;-1.10;99.90;;;;;;5038518;28;20456;-73
2021/12/21 09:45:50;;;;;;;23.73;21.67;;;-1.10;99.90;;;;;;5042800;28;20463;-72
2021/12/21 09:48:17;;;;;;;23.90;21.80;;;-1.10;99.90;;;;;;5042222;28;20468;-72
2021/12/21 09:50:44;;;;;;;27.50;22.93;;;-1.00;99.90;;;;;;5037579;28;20462;-71
2021/12/21 09:53:11;;;;;;;31.10;23.07;;;-0.90;99.90;;;;;;5037571;28;20497;-73
2021/12/21 09:55:39;;;;;;;25.20;22.70;;;-0.80;99.90;;;;;;5042947;28;20532;-70
2021/12/21 09:58:06;;;;;;;24.37;22.57;;;-0.70;99.90;;;;;;5040032;28;20496;-73
2021/12/21 10:00:34;;;;;;;30.30;23.00;;;-0.70;99.90;;;;;;5045345;28;21130;-73
2021/12/21 10:03:04;;;;;;;25.60;23.30;;;-0.70;99.90;;;;;;5041006;28;20974;-70
2021/12/21 10:05:34;;;;;;;25.03;22.83;;;-0.60;99.90;;;;;;5045061;28;20471;-72
2021/12/21 10:08:02;;;;;;;24.13;22.40;;;-0.50;99.90;;;;;;5045630;28;20538;-73
2021/12/21 10:10:33;;;;;;;26.40;23.90;;;-0.40;99.90;;;;;;5034965;28;20488;-73
2021/12/21 10:13:10;;;;;;;30.53;26.93;;;-0.30;99.90;;;;;;5040403;28;20502;-74
2021/12/21 10:15:42;;;;;;;27.80;25.27;;;-0.30;99.90;;;;;;5039508;28;20820;-71
2021/12/21 10:18:10;;;;;;;30.27;24.13;;;-0.20;99.90;;;;;;5032478;28;20537;-73
2021/12/21 10:20:41;;;;;;;27.67;24.87;;;-0.20;99.90;;;;;;5041471;28;20983;-71
2021/12/21 10:23:10;;;;;;;26.93;24.47;;;-0.20;99.90;;;;;;5035864;28;20486;-73
2021/12/21 10:25:42;;;;;;;32.50;25.00;;;-0.10;99.90;;;;;;5040364;28;20466;-73
2021/12/21 10:28:11;;;;;;;29.27;25.30;;;0.00;99.90;;;;;;5043469;28;20473;-74
2021/12/21 10:30:49;;;;;;;30.20;24.97;;;0.10;99.90;;;;;;5038946;28;20494;-74
2021/12/21 10:33:15;;;;;;;27.57;24.83;;;0.20;99.90;;;;;;5042787;28;21149;-74
2021/12/21 10:35:43;;;;;;;26.23;23.90;;;0.20;99.90;;;;;;5038224;28;20464;-74
2021/12/21 10:38:10;;;;;;;28.03;24.77;;;0.30;99.90;;;;;;5036846;28;20519;-73
2021/12/21 10:40:39;;;;;;;26.80;24.30;;;0.40;99.90;;;;;;5035375;28;20497;-73
2021/12/21 10:43:10;;;;;;;27.90;25.37;;;0.40;99.90;;;;;;5044272;28;20460;-71
2021/12/21 10:45:40;;;;;;;30.90;24.63;;;0.50;99.90;;;;;;5041911;28;20463;-72
2021/12/21 10:48:15;;;;;;;29.70;25.33;;;0.50;99.90;;;;;;5035232;28;20495;-72
2021/12/21 10:50:42;;;;;;;28.03;25.40;;;0.50;99.90;;;;;;5043477;28;20464;-72
2021/12/21 10:53:17;;;;;;;28.47;25.30;;;0.50;99.90;;;;;;5037280;28;20498;-72
2021/12/21 10:55:44;;;;;;;29.43;26.40;;;0.50;99.90;;;;;;5035012;28;20934;-75
2021/12/21 10:58:15;;;;;;;28.40;25.90;;;0.50;99.90;;;;;;5034467;28;20473;-74
2021/12/21 11:00:46;;;;;;;28.83;25.93;;;0.60;99.90;;;;;;5043783;28;20464;-73
2021/12/21 11:03:17;;;;;;;35.70;28.07;;;0.60;99.90;;;;;;5036444;28;20482;-72
2021/12/21 11:05:44;;;;;;;29.40;26.47;;;0.60;99.90;;;;;;5043357;28;20861;-72
2021/12/21 11:08:16;;;;;;;41.30;27.37;;;0.70;99.90;;;;;;5036202;28;20845;-73
2021/12/21 11:10:51;;;;;;;31.70;28.57;;;0.70;99.90;;;;;;5041188;28;20524;-74
2021/12/21 11:13:18;;;;;;;35.20;30.20;;;0.70;99.90;;;;;;5037779;28;20495;-72
2021/12/21 11:15:52;;;;;;;37.47;30.93;;;0.90;99.90;;;;;;5031501;28;21060;-72
2021/12/21 11:18:20;;;;;;;32.33;28.20;;;1.10;99.90;;;;;;5035136;28;20494;-74
2021/12/21 11:20:49;;;;;;;32.80;29.63;;;1.10;99.90;;;;;;5035577;28;20486;-73
2021/12/21 11:23:17;;;;;;;33.07;29.97;;;1.20;99.90;;;;;;5041790;28;20463;-75
2021/12/21 11:25:48;;;;;;;32.57;29.87;;;1.30;99.90;;;;;;5040741;28;20464;-72
2021/12/21 11:28:17;;;;;;;31.93;28.70;;;1.20;99.90;;;;;;5035889;28;20556;-73
2021/12/21 11:30:46;;;;;;;45.27;30.80;;;1.30;99.90;;;;;;5042842;28;20953;-75
2021/12/21 11:33:16;;;;;;;35.43;29.93;;;1.30;99.90;;;;;;5039120;28;20510;-73
2021/12/21 11:38:30;;;;;;;35.07;31.37;;;1.40;99.90;;;;;;5034635;28;20468;-72
2021/12/21 11:40:57;;;;;;;50.17;31.17;;;1.60;99.90;;;;;;5036884;28;20547;-71
2021/12/21 11:43:28;;;;;;;46.00;31.77;;;2.60;99.90;;;;;;5038953;28;21336;-70
2021/12/21 11:46:00;;;;;;;37.50;32.50;;;3.50;99.90;;;;;;5043537;28;20448;-70
2021/12/21 11:48:36;;;;;;;37.53;30.50;;;4.30;99.90;;;;;;5034349;28;20461;-70
2021/12/21 11:51:07;;;;;;;36.83;32.67;;;5.00;99.90;;;;;;5035784;28;20516;-70
2021/12/21 11:53:34;;;;;;;44.90;34.47;;;5.40;99.90;;;;;;5035738;28;20527;-72
2021/12/21 11:56:01;;;;;;;43.30;33.40;;;5.70;99.90;;;;;;5042917;28;20468;-70
2021/12/21 11:58:32;;;;;;;37.70;33.17;;;6.10;99.90;;;;;;5040016;28;20496;-68
2021/12/21 12:01:02;;;;;;;41.43;34.13;;;6.60;99.90;;;;;;5040723;28;20473;-71
2021/12/21 12:03:32;;;;;;;36.83;32.70;;;6.80;99.90;;;;;;5037855;28;20466;-69
2021/12/21 12:06:01;;;;;;;37.23;33.37;;;7.50;99.90;;;;;;5043029;28;20460;-69
2021/12/21 12:08:42;;;;;;;35.30;31.37;;;8.30;99.90;;;;;;5036018;28;20460;-69
2021/12/21 12:11:09;;;;;;;34.83;31.67;;;8.60;99.90;;;;;;5039631;28;20458;-69
2021/12/21 12:13:40;;;;;;;33.10;29.53;;;8.70;99.90;;;;;;5041471;28;20577;-70
2021/12/21 12:16:11;;;;;;;32.13;28.60;;;9.10;99.90;;;;;;5043975;28;20822;-68
2021/12/21 12:18:42;;;;;;;30.93;27.80;;;9.30;99.90;;;;;;5045289;28;20551;-70
2021/12/21 12:21:18;;;;;;;32.10;28.33;;;9.70;99.90;;;;;;5041320;28;20493;-71
2021/12/21 12:23:51;;;;;;;37.57;29.07;;;9.70;99.90;;;;;;5037690;28;20985;-70
2021/12/21 12:26:24;;;;;;;30.87;28.00;;;9.60;99.90;;;;;;5044525;28;20491;-69
2021/12/21 12:28:52;;;;;;;40.07;29.17;;;9.80;99.90;;;;;;5038552;28;20463;-71
2021/12/21 12:31:32;;;;;;;29.63;26.90;;;10.00;99.90;;;;;;5040551;28;20463;-71
2021/12/21 12:33:59;;;;;;;27.80;25.17;;;10.40;99.90;;;;;;5044791;28;20495;-70
2021/12/21 12:36:46;;;;;;;28.10;25.10;;;10.50;99.90;;;;;;5039626;28;20472;-69
2021/12/21 12:39:29;;;;;;;30.10;24.97;;;10.60;99.90;;;;;;5039652;28;20947;-71
2021/12/21 12:42:03;;;;;;;34.50;29.60;;;10.80;99.90;;;;;;5039760;28;20463;-69
2021/12/21 12:44:30;;;;;;;27.50;25.00;;;10.20;99.90;;;;;;5038331;28;20468;-68
2021/12/21 12:47:02;;;;;;;27.10;24.30;;;10.00;99.90;;;;;;5042754;28;20495;-68
2021/12/21 12:49:31;;;;;;;28.63;22.20;;;10.10;99.90;;;;;;5043031;28;20463;-68
2021/12/21 12:52:08;;;;;;;23.73;21.23;;;10.20;99.90;;;;;;5039865;28;20554;-69
2021/12/21 12:54:46;;;;;;;25.90;23.27;;;9.80;99.90;;;;;;5039721;28;20503;-70
2021/12/21 12:57:25;;;;;;;26.60;22.70;;;10.20;99.90;;;;;;5044895;28;20459;-68
2021/12/21 12:59:53;;;;;;;29.03;22.23;;;10.00;99.90;;;;;;5046642;28;20814;-70
2021/12/21 13:02:22;;;;;;;23.30;21.10;;;10.00;99.90;;;;;;5040552;28;20959;-70
2021/12/21 13:04:49;;;;;;;28.43;21.23;;;10.50;99.90;;;;;;5042181;28;20502;-70
2021/12/21 13:07:25;;;;;;;23.03;21.00;;;10.70;99.90;;;;;;5035238;28;20468;-70
2021/12/21 13:09:52;;;;;;;23.13;20.73;;;10.30;99.90;;;;;;5035776;28;20491;-68